createdAt,value
2023-01-13T00:01:08.222Z,0.40
2023-01-13T00:03:38.891Z,0.30
2023-01-13T00:06:08.330Z,0.40
2023-01-13T00:08:36.832Z,0.20
2023-01-13T00:11:05.210Z,0.20
2023-01-13T00:13:35.319Z,0.40
2023-01-13T00:16:06.074Z,0.30
2023-01-13T00:18:36.829Z,0.30
2023-01-13T00:21:08.626Z,0.30
2023-01-13T00:23:37.055Z,0.30
2023-01-13T00:26:07.933Z,0.30
2023-01-13T00:28:37.158Z,0.30
2023-01-13T00:31:07.044Z,0.30
2023-01-13T00:33:36.109Z,0.30
2023-01-13T00:36:08.004Z,0.35
2023-01-13T00:38:37.764Z,0.40
2023-01-13T00:41:08.096Z,0.32
2023-01-13T00:43:37.139Z,0.40
2023-01-13T00:46:06.882Z,0.40
2023-01-13T00:48:35.793Z,0.38
2023-01-13T00:51:08.588Z,0.47
2023-01-13T00:53:38.905Z,0.38
2023-01-13T00:56:09.929Z,0.30
2023-01-13T00:58:38.446Z,0.40
2023-01-13T01:01:08.998Z,0.40
2023-01-13T01:03:37.908Z,0.35
2023-01-13T01:06:09.241Z,0.52
2023-01-13T01:08:37.591Z,0.30
2023-01-13T01:11:08.805Z,0.43
2023-01-13T01:13:37.761Z,0.40
2023-01-13T01:16:07.973Z,0.52
2023-01-13T01:18:38.222Z,0.50
2023-01-13T01:21:08.930Z,0.40
2023-01-13T01:23:38.460Z,0.40
2023-01-13T01:26:09.607Z,0.40
2023-01-13T01:28:37.993Z,0.20
2023-01-13T01:31:10.655Z,0.40
2023-01-13T01:33:40.975Z,0.50
2023-01-13T01:36:12.238Z,0.30
2023-01-13T01:38:40.677Z,0.38
2023-01-13T01:41:09.179Z,0.35
2023-01-13T01:43:59.684Z,0.70
2023-01-13T01:46:29.287Z,0.40
2023-01-13T01:49:03.364Z,0.40
2023-01-13T01:51:37.915Z,0.32
2023-01-13T01:54:10.303Z,0.38
2023-01-13T01:56:42.516Z,0.50
2023-01-13T01:59:11.349Z,0.40
2023-01-13T02:01:41.501Z,0.40
2023-01-13T02:04:16.336Z,0.30
2023-01-13T02:06:48.111Z,0.32
2023-01-13T02:09:17.865Z,0.50
2023-01-13T02:12:03.736Z,0.50
2023-01-13T02:14:35.342Z,0.50
2023-01-13T02:17:24.158Z,0.32
2023-01-13T02:20:31.288Z,0.50
2023-01-13T02:26:14.166Z,0.43
2023-01-13T02:29:22.169Z,0.35
2023-01-13T02:31:56.540Z,0.40
2023-01-13T02:34:33.797Z,0.20
2023-01-13T02:37:08.261Z,0.50
2023-01-13T02:39:44.551Z,0.40
2023-01-13T02:42:37.615Z,0.50
2023-01-13T02:45:12.548Z,0.30
2023-01-13T02:47:45.997Z,0.40
2023-01-13T02:50:18.329Z,0.30
2023-01-13T02:52:51.712Z,0.35
2023-01-13T02:55:27.022Z,0.40
2023-01-13T02:57:59.349Z,0.30
2023-01-13T03:00:29.096Z,0.50
2023-01-13T03:02:59.225Z,0.40
2023-01-13T03:05:28.684Z,0.45
2023-01-13T03:08:08.807Z,0.45
2023-01-13T03:10:56.584Z,0.47
2023-01-13T03:14:09.706Z,0.60
2023-01-13T03:16:49.735Z,0.95
2023-01-13T03:19:31.374Z,0.50
2023-01-13T03:22:09.176Z,0.93
2023-01-13T03:24:41.256Z,0.50
2023-01-13T03:27:16.149Z,0.50
2023-01-13T03:29:50.764Z,0.77
2023-01-13T03:32:24.241Z,0.65
2023-01-13T03:34:57.973Z,0.93
2023-01-13T03:37:31.670Z,0.60
2023-01-13T03:40:03.083Z,0.68
2023-01-13T03:42:35.062Z,0.90
2023-01-13T03:45:07.831Z,0.80
2023-01-13T03:47:42.214Z,0.80
2023-01-13T03:50:16.260Z,0.82
2023-01-13T03:52:48.480Z,0.60
2023-01-13T03:55:19.327Z,0.65
2023-01-13T03:57:51.997Z,0.60
2023-01-13T04:00:23.891Z,1.23
2023-01-13T04:02:57.009Z,0.80
2023-01-13T04:05:28.340Z,0.77
2023-01-13T04:08:04.539Z,0.73
2023-01-13T04:10:39.558Z,0.80
2023-01-13T04:13:12.569Z,0.88
2023-01-13T04:15:44.098Z,0.95
2023-01-13T04:18:17.860Z,0.52
2023-01-13T04:20:49.980Z,0.60
2023-01-13T04:23:19.409Z,0.70
2023-01-13T04:25:48.612Z,0.82
2023-01-13T04:28:18.418Z,0.60
2023-01-13T04:30:47.855Z,0.60
2023-01-13T04:33:18.279Z,0.40
2023-01-13T04:35:49.105Z,0.47
2023-01-13T04:38:19.177Z,0.82
2023-01-13T04:40:48.322Z,0.50
2023-01-13T04:43:17.445Z,0.60
2023-01-13T04:45:46.014Z,0.60
2023-01-13T04:48:14.595Z,0.60
2023-01-13T04:50:43.112Z,0.77
2023-01-13T04:53:12.966Z,0.50
2023-01-13T04:55:41.622Z,0.40
2023-01-13T04:58:11.544Z,1.42
2023-01-13T05:00:40.408Z,0.68
2023-01-13T05:03:09.236Z,0.40
2023-01-13T05:05:38.013Z,0.60
2023-01-13T05:08:06.983Z,0.50
2023-01-13T05:10:37.014Z,0.70
2023-01-13T05:13:23.066Z,0.50
2023-01-13T05:18:46.252Z,0.68
2023-01-13T05:21:28.650Z,0.73
2023-01-13T05:24:14.621Z,0.93
2023-01-13T05:26:44.785Z,0.70
2023-01-13T05:29:13.254Z,0.68
2023-01-13T05:31:41.913Z,0.88
2023-01-13T05:34:10.633Z,0.75
2023-01-13T05:36:39.472Z,0.80
2023-01-13T05:39:08.026Z,0.77
2023-01-13T05:41:53.998Z,0.80
2023-01-13T05:44:24.905Z,0.70
2023-01-13T05:46:53.475Z,0.80
2023-01-13T05:49:22.035Z,1.10
2023-01-13T05:51:50.457Z,0.60
2023-01-13T05:54:18.828Z,1.02
2023-01-13T05:56:47.333Z,0.88
2023-01-13T05:59:15.756Z,1.00
2023-01-13T06:01:45.572Z,0.70
2023-01-13T06:04:14.319Z,0.93
2023-01-13T06:06:43.399Z,0.73
2023-01-13T06:09:11.827Z,1.08
2023-01-13T06:11:40.248Z,0.80
2023-01-13T06:14:08.667Z,0.98
2023-01-13T06:16:37.042Z,0.65
2023-01-13T06:19:08.942Z,0.70
2023-01-13T06:21:37.639Z,0.57
2023-01-13T06:24:07.079Z,0.50
2023-01-13T06:26:39.716Z,0.40
2023-01-13T06:29:10.074Z,0.60
2023-01-13T06:31:40.200Z,0.57
2023-01-13T06:34:15.116Z,0.40
2023-01-13T06:36:46.861Z,0.50
2023-01-13T06:39:18.858Z,0.60
2023-01-13T06:42:07.866Z,0.60
2023-01-13T06:44:36.252Z,0.60
2023-01-13T06:47:04.815Z,0.50
2023-01-13T06:49:34.653Z,0.55
2023-01-13T06:52:03.164Z,0.88
2023-01-13T06:54:31.519Z,0.88
2023-01-13T06:57:00.046Z,1.00
2023-01-13T06:59:29.184Z,0.80
2023-01-13T07:01:57.882Z,0.90
2023-01-13T07:04:26.792Z,1.20
2023-01-13T07:06:56.931Z,0.80
2023-01-13T07:09:25.364Z,0.95
2023-01-13T07:11:53.720Z,0.80
2023-01-13T07:14:39.750Z,0.90
2023-01-13T07:17:08.145Z,0.85
2023-01-13T07:19:36.536Z,0.60
2023-01-13T07:22:06.337Z,0.73
2023-01-13T07:24:34.667Z,1.10
2023-01-13T07:27:02.999Z,0.90
2023-01-13T07:29:31.466Z,0.75
2023-01-13T07:31:59.899Z,1.13
2023-01-13T07:34:28.208Z,0.77
2023-01-13T07:36:56.599Z,1.00
2023-01-13T07:39:26.359Z,1.05
2023-01-13T07:42:12.346Z,0.93
2023-01-13T07:44:41.268Z,1.40
2023-01-13T07:47:11.099Z,1.48
2023-01-13T07:49:39.509Z,1.33
2023-01-13T07:52:07.848Z,1.05
2023-01-13T07:54:41.070Z,1.23
2023-01-13T07:57:10.050Z,1.15
2023-01-13T07:59:38.535Z,1.40
2023-01-13T08:02:07.473Z,1.50
2023-01-13T08:04:36.125Z,1.27
2023-01-13T08:07:05.731Z,1.27
2023-01-13T08:09:34.066Z,1.95
2023-01-13T08:12:21.371Z,0.98
2023-01-13T08:14:51.651Z,0.82
2023-01-13T08:17:20.686Z,1.10
2023-01-13T08:19:49.176Z,1.35
2023-01-13T08:22:17.512Z,0.85
2023-01-13T08:24:45.891Z,1.27
2023-01-13T08:27:15.631Z,0.88
2023-01-13T08:29:44.026Z,0.98
2023-01-13T08:32:12.408Z,1.38
2023-01-13T08:34:40.931Z,1.13
2023-01-13T08:37:09.522Z,1.10
2023-01-13T08:39:37.915Z,0.80
2023-01-13T08:42:06.416Z,1.05
2023-01-13T08:44:36.459Z,1.17
2023-01-13T08:47:05.245Z,1.02
2023-01-13T08:49:33.636Z,1.10
2023-01-13T08:52:02.030Z,2.22
2023-01-13T08:54:30.590Z,1.73
2023-01-13T08:56:59.074Z,0.95
2023-01-13T08:59:27.432Z,1.42
2023-01-13T09:01:57.540Z,1.20
2023-01-13T09:04:28.610Z,1.15
2023-01-13T09:06:57.482Z,1.27
2023-01-13T09:09:27.615Z,1.20
2023-01-13T09:12:12.796Z,1.05
2023-01-13T09:14:41.309Z,1.57
2023-01-13T09:17:11.155Z,1.23
2023-01-13T09:19:39.641Z,1.52
2023-01-13T09:22:11.096Z,1.10
2023-01-13T09:24:39.501Z,0.98
2023-01-13T09:27:08.001Z,1.40
2023-01-13T09:29:36.353Z,1.45
2023-01-13T09:32:05.043Z,1.13
2023-01-13T09:34:52.421Z,1.58
2023-01-13T09:37:20.781Z,1.23
2023-01-13T09:39:49.241Z,1.27
2023-01-13T09:42:42.747Z,1.00
2023-01-13T09:45:16.791Z,1.00
2023-01-13T09:47:51.173Z,1.30
2023-01-13T09:50:30.633Z,1.00
2023-01-13T09:53:00.586Z,1.55
2023-01-13T09:55:34.642Z,1.33
2023-01-13T09:58:08.842Z,1.13
2023-01-13T10:00:44.389Z,1.88
2023-01-13T10:03:22.180Z,1.20
2023-01-13T10:05:58.455Z,1.25
2023-01-13T10:08:30.384Z,1.00
2023-01-13T10:11:21.353Z,1.08
2023-01-13T10:13:52.210Z,1.10
2023-01-13T10:16:29.219Z,0.95
2023-01-13T10:19:06.440Z,1.25
2023-01-13T10:22:19.618Z,1.23
2023-01-13T10:25:18.236Z,1.25
2023-01-13T10:27:49.944Z,0.90
2023-01-13T10:30:21.635Z,1.35
2023-01-13T10:32:55.121Z,0.88
2023-01-13T10:35:56.548Z,1.00
2023-01-13T10:38:29.539Z,1.25
2023-01-13T10:40:59.832Z,1.23
2023-01-13T10:43:29.707Z,1.38
2023-01-13T10:46:01.631Z,2.13
2023-01-13T10:48:35.217Z,1.00
2023-01-13T10:51:28.804Z,1.73
2023-01-13T10:54:03.615Z,1.80
2023-01-13T10:56:33.877Z,1.27
2023-01-13T10:59:18.461Z,1.13
2023-01-13T11:02:02.421Z,1.25
2023-01-13T11:04:35.928Z,1.92
2023-01-13T11:07:07.543Z,1.50
2023-01-13T11:09:37.228Z,1.27
2023-01-13T11:12:05.873Z,1.23
2023-01-13T11:14:39.706Z,1.00
2023-01-13T11:17:23.039Z,1.48
2023-01-13T11:19:56.621Z,0.90
2023-01-13T11:22:29.342Z,1.15
2023-01-13T11:25:02.550Z,1.25
2023-01-13T11:27:41.555Z,1.08
2023-01-13T11:30:22.953Z,0.93
2023-01-13T11:33:04.673Z,1.02
2023-01-13T11:35:36.935Z,0.82
2023-01-13T11:38:14.430Z,0.77
2023-01-13T11:40:49.637Z,0.88
2023-01-13T11:43:27.450Z,1.00
2023-01-13T11:45:58.584Z,0.80
2023-01-13T11:48:30.400Z,1.02
2023-01-13T11:51:04.373Z,1.52
2023-01-13T11:53:48.840Z,0.90
2023-01-13T11:56:33.791Z,1.40
2023-01-13T11:59:15.795Z,1.20
2023-01-13T12:01:56.584Z,1.50
2023-01-13T12:04:29.455Z,0.93
2023-01-13T12:07:12.729Z,1.00
2023-01-13T12:09:53.441Z,1.08
2023-01-13T12:12:34.674Z,1.25
2023-01-13T12:15:29.063Z,1.25
2023-01-13T12:18:12.257Z,1.45
2023-01-13T12:20:48.698Z,1.23
2023-01-13T12:23:27.922Z,1.60
2023-01-13T12:26:01.139Z,1.25
2023-01-13T12:28:44.576Z,1.00
2023-01-13T12:31:14.524Z,1.20
2023-01-13T12:33:56.880Z,1.10
2023-01-13T12:36:33.528Z,1.60
2023-01-13T12:39:10.803Z,1.15
2023-01-13T12:41:59.828Z,1.00
2023-01-13T12:44:29.636Z,1.17
2023-01-13T12:46:59.652Z,1.67
2023-01-13T12:49:31.017Z,1.38
2023-01-13T12:52:16.146Z,1.75
2023-01-13T12:55:10.856Z,1.05
2023-01-13T12:57:40.155Z,1.55
2023-01-13T13:00:17.555Z,1.27
2023-01-13T13:03:24.268Z,1.40
2023-01-13T13:05:59.310Z,1.75
2023-01-13T13:08:46.191Z,1.42
2023-01-13T13:11:52.676Z,1.30
2023-01-13T13:15:01.215Z,1.35
2023-01-13T13:17:44.345Z,1.23
2023-01-13T13:20:53.830Z,1.98
2023-01-13T13:23:36.072Z,1.20
2023-01-13T13:26:16.205Z,1.50
2023-01-13T13:28:54.751Z,1.30
2023-01-13T13:31:37.279Z,1.58
2023-01-13T13:34:21.734Z,1.33
2023-01-13T13:37:12.226Z,1.52
2023-01-13T13:40:00.791Z,1.83
2023-01-13T13:43:00.478Z,1.63
2023-01-13T13:45:46.635Z,1.30
2023-01-13T13:48:26.731Z,1.55
2023-01-13T13:51:01.762Z,1.45
2023-01-13T13:53:33.953Z,1.42
2023-01-13T13:56:04.840Z,1.63
2023-01-13T13:58:36.979Z,1.30
2023-01-13T14:01:06.340Z,1.45
2023-01-13T14:03:39.894Z,1.25
2023-01-13T14:06:23.575Z,1.65
2023-01-13T14:08:52.080Z,1.95
2023-01-13T14:11:27.961Z,1.30
2023-01-13T14:14:04.678Z,1.25
2023-01-13T14:16:35.018Z,1.20
2023-01-13T14:19:05.087Z,1.00
2023-01-13T14:21:34.827Z,1.67
2023-01-13T14:24:13.631Z,1.25
2023-01-13T14:26:42.449Z,1.58
2023-01-13T14:29:17.861Z,1.83
2023-01-13T14:31:46.433Z,1.80
2023-01-13T14:34:32.332Z,1.52
2023-01-13T14:37:03.781Z,1.55
2023-01-13T14:39:38.876Z,1.48
2023-01-13T14:42:14.102Z,1.00
2023-01-13T14:44:49.625Z,1.52
2023-01-13T14:47:27.642Z,1.60
2023-01-13T14:50:03.336Z,1.43
2023-01-13T14:52:36.574Z,1.48
2023-01-13T14:55:30.313Z,1.63
2023-01-13T14:58:28.330Z,1.65
2023-01-13T15:01:32.361Z,1.48
2023-01-13T15:04:17.295Z,1.70
2023-01-13T15:06:48.248Z,1.95
2023-01-13T15:09:29.793Z,1.52
2023-01-13T15:11:58.817Z,1.80
2023-01-13T15:14:35.969Z,1.55
2023-01-13T15:17:04.494Z,2.00
2023-01-13T15:19:36.426Z,1.92
2023-01-13T15:22:05.526Z,1.85
2023-01-13T15:24:35.273Z,1.63
2023-01-13T15:27:12.078Z,1.60
2023-01-13T15:29:51.666Z,1.70
2023-01-13T15:32:23.658Z,1.50
2023-01-13T15:34:53.016Z,1.35
2023-01-13T15:37:21.405Z,1.23
2023-01-13T15:39:51.232Z,2.05
2023-01-13T15:42:37.161Z,1.00
2023-01-13T15:45:24.032Z,1.20
2023-01-13T15:47:53.185Z,1.60
2023-01-13T15:50:23.028Z,1.60
2023-01-13T15:52:51.522Z,1.65
2023-01-13T15:55:21.219Z,1.60
2023-01-13T15:57:51.169Z,1.83
2023-01-13T16:00:22.203Z,1.42
2023-01-13T16:02:50.878Z,1.70
2023-01-13T16:05:19.308Z,1.50
2023-01-13T16:07:49.453Z,1.52
2023-01-13T16:10:20.136Z,1.77
2023-01-13T16:12:50.010Z,1.50
2023-01-13T16:15:22.212Z,2.40
2023-01-13T16:17:57.181Z,1.65
2023-01-13T16:20:25.844Z,1.40
2023-01-13T16:22:54.246Z,1.60
2023-01-13T16:25:24.547Z,2.75
2023-01-13T16:27:55.336Z,1.23
2023-01-13T16:30:27.272Z,1.15
2023-01-13T16:32:56.007Z,1.88
2023-01-13T16:35:25.327Z,1.77
2023-01-13T16:37:53.904Z,1.98
2023-01-13T16:40:31.117Z,1.90
2023-01-13T16:43:03.391Z,1.63
2023-01-13T16:45:32.976Z,1.70
2023-01-13T16:48:01.404Z,1.60
2023-01-13T16:50:35.949Z,1.50
2023-01-13T16:53:05.223Z,1.65
2023-01-13T16:55:33.931Z,2.00
2023-01-13T16:58:04.315Z,1.80
2023-01-13T17:00:34.425Z,1.20
2023-01-13T17:03:03.330Z,1.45
2023-01-13T17:05:31.736Z,1.35
2023-01-13T17:08:00.271Z,1.85
2023-01-13T17:10:28.810Z,1.50
2023-01-13T17:13:00.068Z,1.58
2023-01-13T17:15:34.083Z,2.30
2023-01-13T17:18:03.150Z,1.77
2023-01-13T17:20:31.694Z,1.48
2023-01-13T17:23:00.342Z,1.38
2023-01-13T17:25:28.725Z,1.60
2023-01-13T17:27:57.737Z,1.58
2023-01-13T17:30:26.244Z,1.92
2023-01-13T17:32:56.314Z,2.00
2023-01-13T17:35:25.417Z,1.60
2023-01-13T17:37:55.179Z,1.60
2023-01-13T17:40:24.128Z,1.75
2023-01-13T17:42:52.773Z,1.35
2023-01-13T17:45:21.185Z,2.00
2023-01-13T17:47:49.670Z,1.30
2023-01-13T17:50:19.656Z,1.60
2023-01-13T17:52:48.047Z,1.30
2023-01-13T17:55:16.768Z,1.58
2023-01-13T17:57:45.145Z,1.20
2023-01-13T18:00:14.423Z,2.03
2023-01-13T18:02:42.970Z,1.30
2023-01-13T18:05:12.489Z,1.58
2023-01-13T18:07:42.268Z,1.00
2023-01-13T18:10:12.284Z,1.80
2023-01-13T18:12:41.165Z,1.50
2023-01-13T18:15:10.197Z,1.38
2023-01-13T18:17:38.592Z,1.73
2023-01-13T18:20:24.829Z,1.67
2023-01-13T18:23:12.359Z,1.58
2023-01-13T18:25:58.841Z,1.65
2023-01-13T18:28:27.302Z,1.25
2023-01-13T18:30:55.639Z,1.73
2023-01-13T18:33:24.534Z,1.90
2023-01-13T18:35:52.953Z,1.70
2023-01-13T18:38:22.983Z,1.50
2023-01-13T18:40:51.959Z,1.27
2023-01-13T18:43:19.438Z,0.98
2023-01-13T18:45:51.590Z,1.52
2023-01-13T18:48:19.990Z,1.20
2023-01-13T18:50:48.383Z,1.38
2023-01-13T18:53:16.780Z,1.60
2023-01-13T18:55:46.477Z,1.75
2023-01-13T18:58:14.961Z,1.55
2023-01-13T19:00:43.415Z,1.50
2023-01-13T19:03:12.759Z,1.77
2023-01-13T19:05:41.266Z,1.40
2023-01-13T19:08:09.863Z,1.38
2023-01-13T19:10:40.383Z,1.67
2023-01-13T19:13:10.102Z,1.52
2023-01-13T19:15:38.478Z,1.80
2023-01-13T19:18:06.885Z,1.70
2023-01-13T19:20:35.264Z,1.58
2023-01-13T19:23:03.648Z,1.65
2023-01-13T19:25:32.100Z,1.73
2023-01-13T19:28:00.546Z,1.60
2023-01-13T19:30:30.394Z,1.60
2023-01-13T19:32:58.875Z,1.63
2023-01-13T19:35:27.263Z,2.28
2023-01-13T19:37:56.257Z,3.45
2023-01-13T19:40:24.684Z,3.10
2023-01-13T19:43:10.781Z,2.95
2023-01-13T19:48:08.905Z,1.67
2023-01-13T19:50:39.546Z,2.70
2023-01-13T19:53:08.902Z,1.98
2023-01-13T19:55:37.343Z,2.53
2023-01-13T19:58:08.006Z,1.85
2023-01-13T20:00:36.555Z,1.55
2023-01-13T20:03:10.601Z,2.25
2023-01-13T20:05:39.007Z,2.03
2023-01-13T20:08:07.493Z,2.72
2023-01-13T20:10:36.816Z,2.10
2023-01-13T20:13:06.538Z,2.20
2023-01-13T20:15:35.095Z,1.67
2023-01-13T20:18:03.512Z,2.78
2023-01-13T20:20:33.398Z,2.00
2023-01-13T20:23:01.997Z,2.30
2023-01-13T20:25:30.533Z,2.35
2023-01-13T20:28:01.652Z,2.20
2023-01-13T20:30:30.044Z,2.40
2023-01-13T20:32:58.440Z,2.15
2023-01-13T20:35:29.559Z,2.13
2023-01-13T20:37:59.656Z,2.55
2023-01-13T20:40:28.063Z,2.17
2023-01-13T20:42:56.463Z,2.42
2023-01-13T20:45:25.985Z,2.20
2023-01-13T20:47:55.205Z,1.95
2023-01-13T20:50:23.628Z,2.17
2023-01-13T20:52:52.547Z,1.95
2023-01-13T20:55:22.329Z,2.78
2023-01-13T20:57:50.795Z,2.03
2023-01-13T21:00:20.254Z,1.98
2023-01-13T21:02:48.580Z,1.98
2023-01-13T21:05:17.012Z,2.30
2023-01-13T21:07:45.485Z,2.42
2023-01-13T21:10:13.888Z,2.30
2023-01-13T21:13:00.924Z,1.80
2023-01-13T21:15:29.427Z,2.22
2023-01-13T21:18:15.510Z,2.08
2023-01-13T21:23:12.083Z,1.92
2023-01-13T21:25:41.065Z,2.42
2023-01-13T21:28:13.345Z,2.63
2023-01-13T21:30:41.674Z,2.95
2023-01-13T21:33:14.200Z,2.45
2023-01-13T21:35:42.629Z,2.30
2023-01-13T21:38:12.388Z,1.85
2023-01-13T21:40:40.824Z,2.05
2023-01-13T21:43:31.021Z,2.10
2023-01-13T21:46:31.336Z,1.73
2023-01-13T21:48:59.779Z,1.77
2023-01-13T21:51:28.467Z,2.05
2023-01-13T21:53:57.162Z,2.67
2023-01-13T21:56:25.660Z,2.90
2023-01-13T21:58:57.002Z,2.00
2023-01-13T22:01:26.235Z,2.25
2023-01-13T22:04:12.408Z,2.10
2023-01-13T22:09:09.322Z,2.55
2023-01-13T22:11:37.688Z,1.80
2023-01-13T22:14:08.769Z,1.75
2023-01-13T22:16:41.429Z,1.98
2023-01-13T22:19:10.982Z,2.03
2023-01-13T22:21:39.956Z,2.42
2023-01-13T22:24:08.768Z,2.00
2023-01-13T22:26:37.265Z,2.33
2023-01-13T22:29:07.006Z,1.92
2023-01-13T22:31:35.436Z,1.77
2023-01-13T22:34:03.862Z,2.13
2023-01-13T22:36:32.221Z,2.55
2023-01-13T22:39:01.279Z,2.00
2023-01-13T22:41:29.710Z,1.55
2023-01-13T22:43:58.151Z,1.88
2023-01-13T22:46:27.932Z,1.88
2023-01-13T22:48:56.290Z,2.22
2023-01-13T22:51:26.397Z,2.35
2023-01-13T22:53:55.106Z,1.70
2023-01-13T22:56:25.140Z,1.80
2023-01-13T22:58:57.962Z,1.92
2023-01-13T23:01:29.774Z,2.13
2023-01-13T23:03:58.707Z,2.30
2023-01-13T23:06:28.479Z,1.73
2023-01-13T23:08:57.403Z,1.80
2023-01-13T23:11:28.015Z,1.80
2023-01-13T23:14:00.951Z,1.80
2023-01-13T23:16:33.250Z,2.00
2023-01-13T23:19:02.230Z,2.25
2023-01-13T23:21:32.530Z,1.88
2023-01-13T23:24:01.198Z,2.33
2023-01-13T23:26:30.415Z,1.63
2023-01-13T23:29:00.190Z,1.58
2023-01-13T23:31:30.540Z,2.38
2023-01-13T23:33:59.231Z,2.17
2023-01-13T23:36:28.572Z,1.85
2023-01-13T23:38:59.265Z,2.17
2023-01-13T23:41:28.862Z,1.88
2023-01-13T23:43:59.601Z,1.60
2023-01-13T23:46:31.160Z,1.65
2023-01-13T23:48:59.639Z,2.28
2023-01-13T23:51:30.062Z,1.90
2023-01-13T23:53:59.692Z,1.52
2023-01-13T23:56:29.918Z,1.88
2023-01-13T23:58:58.698Z,1.80
